sensor_id;sensor_type;location;lat;lon;timestamp;P1;durP1;ratioP1;P2;durP2;ratioP2
22298;SDS011;11317;51.072;17.036;2022-12-10T00:01:04;65.03;;;21.67;;
22298;SDS011;11317;51.072;17.036;2022-12-10T00:03:49;59.30;;;19.63;;
22298;SDS011;11317;51.072;17.036;2022-12-10T00:06:19;62.80;;;19.40;;
22298;SDS011;11317;51.072;17.036;2022-12-10T00:08:47;56.38;;;18.35;;
22298;SDS011;11317;51.072;17.036;2022-12-10T00:11:14;69.45;;;19.73;;
22298;SDS011;11317;51.072;17.036;2022-12-10T00:13:41;58.35;;;19.70;;
22298;SDS011;11317;51.072;17.036;2022-12-10T00:16:08;64.80;;;20.10;;
22298;SDS011;11317;51.072;17.036;2022-12-10T00:18:35;67.95;;;20.02;;
22298;SDS011;11317;51.072;17.036;2022-12-10T00:21:02;59.28;;;19.42;;
22298;SDS011;11317;51.072;17.036;2022-12-10T00:23:29;62.58;;;20.20;;
22298;SDS011;11317;51.072;17.036;2022-12-10T00:26:07;57.45;;;19.55;;
22298;SDS011;11317;51.072;17.036;2022-12-10T00:28:34;63.75;;;21.02;;
22298;SDS011;11317;51.072;17.036;2022-12-10T00:31:02;60.42;;;18.30;;
22298;SDS011;11317;51.072;17.036;2022-12-10T00:33:28;56.03;;;19.10;;
22298;SDS011;11317;51.072;17.036;2022-12-10T00:35:54;62.60;;;19.33;;
22298;SDS011;11317;51.072;17.036;2022-12-10T00:38:20;54.97;;;19.08;;
22298;SDS011;11317;51.072;17.036;2022-12-10T00:40:46;50.20;;;17.65;;
22298;SDS011;11317;51.072;17.036;2022-12-10T00:43:12;59.45;;;18.80;;
22298;SDS011;11317;51.072;17.036;2022-12-10T00:45:38;55.70;;;16.45;;
22298;SDS011;11317;51.072;17.036;2022-12-10T00:48:04;60.63;;;19.60;;
22298;SDS011;11317;51.072;17.036;2022-12-10T00:50:30;63.50;;;19.15;;
22298;SDS011;11317;51.072;17.036;2022-12-10T00:52:56;55.90;;;19.08;;
22298;SDS011;11317;51.072;17.036;2022-12-10T00:55:22;62.15;;;18.80;;
22298;SDS011;11317;51.072;17.036;2022-12-10T00:57:48;49.92;;;17.90;;
22298;SDS011;11317;51.072;17.036;2022-12-10T01:00:15;57.72;;;17.73;;
22298;SDS011;11317;51.072;17.036;2022-12-10T01:02:41;56.75;;;16.27;;
22298;SDS011;11317;51.072;17.036;2022-12-10T01:05:07;49.38;;;15.90;;
22298;SDS011;11317;51.072;17.036;2022-12-10T01:07:33;61.85;;;18.80;;
22298;SDS011;11317;51.072;17.036;2022-12-10T01:09:59;57.83;;;18.15;;
22298;SDS011;11317;51.072;17.036;2022-12-10T01:12:25;62.15;;;17.38;;
22298;SDS011;11317;51.072;17.036;2022-12-10T01:14:51;58.45;;;18.60;;
22298;SDS011;11317;51.072;17.036;2022-12-10T01:17:18;62.67;;;17.50;;
22298;SDS011;11317;51.072;17.036;2022-12-10T01:19:46;55.22;;;17.30;;
22298;SDS011;11317;51.072;17.036;2022-12-10T01:22:12;50.80;;;16.08;;
22298;SDS011;11317;51.072;17.036;2022-12-10T01:24:38;54.20;;;17.52;;
22298;SDS011;11317;51.072;17.036;2022-12-10T01:27:04;49.70;;;16.25;;
22298;SDS011;11317;51.072;17.036;2022-12-10T01:29:30;49.47;;;18.23;;
22298;SDS011;11317;51.072;17.036;2022-12-10T01:31:57;54.30;;;16.98;;
22298;SDS011;11317;51.072;17.036;2022-12-10T01:34:23;47.97;;;16.70;;
22298;SDS011;11317;51.072;17.036;2022-12-10T01:36:51;59.90;;;17.90;;
22298;SDS011;11317;51.072;17.036;2022-12-10T01:39:18;58.55;;;17.70;;
22298;SDS011;11317;51.072;17.036;2022-12-10T01:41:46;52.08;;;16.33;;
22298;SDS011;11317;51.072;17.036;2022-12-10T01:46:50;60.08;;;17.23;;
22298;SDS011;11317;51.072;17.036;2022-12-10T01:49:18;53.35;;;17.58;;
22298;SDS011;11317;51.072;17.036;2022-12-10T01:51:47;51.03;;;16.48;;
22298;SDS011;11317;51.072;17.036;2022-12-10T01:54:17;52.58;;;17.25;;
22298;SDS011;11317;51.072;17.036;2022-12-10T01:56:50;58.60;;;17.25;;
22298;SDS011;11317;51.072;17.036;2022-12-10T01:59:28;55.50;;;17.00;;
22298;SDS011;11317;51.072;17.036;2022-12-10T02:02:04;52.72;;;16.08;;
22298;SDS011;11317;51.072;17.036;2022-12-10T02:05:17;52.92;;;15.85;;
22298;SDS011;11317;51.072;17.036;2022-12-10T02:10:43;57.08;;;17.30;;
22298;SDS011;11317;51.072;17.036;2022-12-10T02:13:38;56.72;;;17.33;;
22298;SDS011;11317;51.072;17.036;2022-12-10T02:16:10;51.58;;;15.45;;
22298;SDS011;11317;51.072;17.036;2022-12-10T02:18:46;49.88;;;17.50;;
22298;SDS011;11317;51.072;17.036;2022-12-10T02:21:22;57.95;;;17.23;;
22298;SDS011;11317;51.072;17.036;2022-12-10T02:23:53;60.28;;;16.08;;
22298;SDS011;11317;51.072;17.036;2022-12-10T02:29:16;54.00;;;16.98;;
22298;SDS011;11317;51.072;17.036;2022-12-10T02:32:02;60.25;;;17.38;;
22298;SDS011;11317;51.072;17.036;2022-12-10T02:34:57;55.67;;;16.98;;
22298;SDS011;11317;51.072;17.036;2022-12-10T02:37:32;53.95;;;15.30;;
22298;SDS011;11317;51.072;17.036;2022-12-10T02:40:05;54.17;;;16.02;;
22298;SDS011;11317;51.072;17.036;2022-12-10T02:42:37;62.78;;;16.40;;
22298;SDS011;11317;51.072;17.036;2022-12-10T02:45:05;58.08;;;17.17;;
22298;SDS011;11317;51.072;17.036;2022-12-10T02:47:33;44.38;;;16.20;;
22298;SDS011;11317;51.072;17.036;2022-12-10T02:50:00;58.13;;;17.38;;
22298;SDS011;11317;51.072;17.036;2022-12-10T02:52:26;54.15;;;17.27;;
22298;SDS011;11317;51.072;17.036;2022-12-10T02:54:52;49.92;;;18.05;;
22298;SDS011;11317;51.072;17.036;2022-12-10T02:57:37;50.70;;;15.63;;
22298;SDS011;11317;51.072;17.036;2022-12-10T03:00:17;52.35;;;15.68;;
22298;SDS011;11317;51.072;17.036;2022-12-10T03:05:36;55.58;;;17.05;;
22298;SDS011;11317;51.072;17.036;2022-12-10T03:08:17;45.90;;;15.90;;
22298;SDS011;11317;51.072;17.036;2022-12-10T03:10:55;53.65;;;16.35;;
22298;SDS011;11317;51.072;17.036;2022-12-10T03:16:35;46.97;;;15.55;;
22298;SDS011;11317;51.072;17.036;2022-12-10T03:19:10;56.72;;;18.55;;
22298;SDS011;11317;51.072;17.036;2022-12-10T03:21:40;59.97;;;18.58;;
22298;SDS011;11317;51.072;17.036;2022-12-10T03:24:07;69.82;;;16.48;;
22298;SDS011;11317;51.072;17.036;2022-12-10T03:26:34;66.60;;;17.23;;
22298;SDS011;11317;51.072;17.036;2022-12-10T03:29:03;54.83;;;15.88;;
22298;SDS011;11317;51.072;17.036;2022-12-10T03:31:33;56.33;;;15.80;;
22298;SDS011;11317;51.072;17.036;2022-12-10T03:34:00;59.47;;;18.02;;
22298;SDS011;11317;51.072;17.036;2022-12-10T03:36:27;62.60;;;17.17;;
22298;SDS011;11317;51.072;17.036;2022-12-10T03:38:55;51.72;;;16.27;;
22298;SDS011;11317;51.072;17.036;2022-12-10T03:41:21;57.42;;;16.17;;
22298;SDS011;11317;51.072;17.036;2022-12-10T03:44:05;49.45;;;14.82;;
22298;SDS011;11317;51.072;17.036;2022-12-10T03:46:31;43.42;;;14.43;;
22298;SDS011;11317;51.072;17.036;2022-12-10T03:48:58;45.67;;;14.93;;
22298;SDS011;11317;51.072;17.036;2022-12-10T03:51:24;49.03;;;15.90;;
22298;SDS011;11317;51.072;17.036;2022-12-10T03:53:51;56.50;;;15.98;;
22298;SDS011;11317;51.072;17.036;2022-12-10T03:56:17;45.28;;;15.93;;
22298;SDS011;11317;51.072;17.036;2022-12-10T03:58:44;55.92;;;16.67;;
22298;SDS011;11317;51.072;17.036;2022-12-10T04:01:10;61.97;;;18.23;;
22298;SDS011;11317;51.072;17.036;2022-12-10T04:03:38;47.33;;;15.43;;
22298;SDS011;11317;51.072;17.036;2022-12-10T04:06:06;38.25;;;14.70;;
22298;SDS011;11317;51.072;17.036;2022-12-10T04:08:33;54.75;;;16.17;;
22298;SDS011;11317;51.072;17.036;2022-12-10T04:11:03;52.60;;;15.70;;
22298;SDS011;11317;51.072;17.036;2022-12-10T04:13:33;50.70;;;14.88;;
22298;SDS011;11317;51.072;17.036;2022-12-10T04:16:19;51.17;;;15.98;;
22298;SDS011;11317;51.072;17.036;2022-12-10T04:18:55;42.45;;;14.57;;
22298;SDS011;11317;51.072;17.036;2022-12-10T04:21:22;42.67;;;16.23;;
22298;SDS011;11317;51.072;17.036;2022-12-10T04:24:08;45.55;;;14.38;;
22298;SDS011;11317;51.072;17.036;2022-12-10T04:26:54;47.72;;;16.58;;
22298;SDS011;11317;51.072;17.036;2022-12-10T04:29:28;38.55;;;13.98;;
22298;SDS011;11317;51.072;17.036;2022-12-10T04:34:21;41.97;;;14.15;;
22298;SDS011;11317;51.072;17.036;2022-12-10T04:36:47;41.20;;;12.48;;
22298;SDS011;11317;51.072;17.036;2022-12-10T04:39:14;45.60;;;14.48;;
22298;SDS011;11317;51.072;17.036;2022-12-10T04:41:40;38.42;;;12.98;;
22298;SDS011;11317;51.072;17.036;2022-12-10T04:44:07;41.10;;;14.15;;
22298;SDS011;11317;51.072;17.036;2022-12-10T04:46:33;34.17;;;13.63;;
22298;SDS011;11317;51.072;17.036;2022-12-10T04:48:59;39.85;;;14.23;;
22298;SDS011;11317;51.072;17.036;2022-12-10T04:51:25;35.35;;;12.52;;
22298;SDS011;11317;51.072;17.036;2022-12-10T04:53:51;37.33;;;13.77;;
22298;SDS011;11317;51.072;17.036;2022-12-10T04:56:17;38.42;;;13.93;;
22298;SDS011;11317;51.072;17.036;2022-12-10T04:58:43;39.10;;;12.75;;
22298;SDS011;11317;51.072;17.036;2022-12-10T05:01:10;42.50;;;14.82;;
22298;SDS011;11317;51.072;17.036;2022-12-10T05:03:37;36.70;;;12.68;;
22298;SDS011;11317;51.072;17.036;2022-12-10T05:06:05;33.50;;;12.57;;
22298;SDS011;11317;51.072;17.036;2022-12-10T05:08:35;40.22;;;14.13;;
22298;SDS011;11317;51.072;17.036;2022-12-10T05:11:03;43.88;;;13.45;;
22298;SDS011;11317;51.072;17.036;2022-12-10T05:13:30;36.10;;;14.10;;
22298;SDS011;11317;51.072;17.036;2022-12-10T05:15:56;36.97;;;12.27;;
22298;SDS011;11317;51.072;17.036;2022-12-10T05:18:22;40.65;;;13.63;;
22298;SDS011;11317;51.072;17.036;2022-12-10T05:20:48;45.83;;;14.05;;
22298;SDS011;11317;51.072;17.036;2022-12-10T05:23:14;40.70;;;14.23;;
22298;SDS011;11317;51.072;17.036;2022-12-10T05:28:25;39.20;;;13.00;;
22298;SDS011;11317;51.072;17.036;2022-12-10T05:30:51;36.63;;;13.68;;
22298;SDS011;11317;51.072;17.036;2022-12-10T05:33:17;39.85;;;13.93;;
22298;SDS011;11317;51.072;17.036;2022-12-10T05:35:50;37.03;;;13.73;;
22298;SDS011;11317;51.072;17.036;2022-12-10T05:38:27;36.72;;;13.43;;
22298;SDS011;11317;51.072;17.036;2022-12-10T05:40:54;40.63;;;13.02;;
22298;SDS011;11317;51.072;17.036;2022-12-10T05:43:19;37.38;;;13.48;;
22298;SDS011;11317;51.072;17.036;2022-12-10T05:45:45;38.20;;;12.60;;
22298;SDS011;11317;51.072;17.036;2022-12-10T05:48:14;38.30;;;13.25;;
22298;SDS011;11317;51.072;17.036;2022-12-10T05:50:41;36.55;;;13.18;;
22298;SDS011;11317;51.072;17.036;2022-12-10T05:53:07;38.65;;;12.57;;
22298;SDS011;11317;51.072;17.036;2022-12-10T05:55:32;33.58;;;11.68;;
22298;SDS011;11317;51.072;17.036;2022-12-10T05:57:59;37.97;;;14.00;;
22298;SDS011;11317;51.072;17.036;2022-12-10T06:00:28;38.97;;;13.60;;
22298;SDS011;11317;51.072;17.036;2022-12-10T06:02:54;36.22;;;13.63;;
22298;SDS011;11317;51.072;17.036;2022-12-10T06:05:20;39.90;;;12.93;;
22298;SDS011;11317;51.072;17.036;2022-12-10T06:07:46;38.05;;;13.27;;
22298;SDS011;11317;51.072;17.036;2022-12-10T06:10:12;32.55;;;12.52;;
22298;SDS011;11317;51.072;17.036;2022-12-10T06:12:38;34.92;;;12.40;;
22298;SDS011;11317;51.072;17.036;2022-12-10T06:15:04;33.78;;;12.93;;
22298;SDS011;11317;51.072;17.036;2022-12-10T06:17:30;37.85;;;13.57;;
22298;SDS011;11317;51.072;17.036;2022-12-10T06:19:57;31.98;;;12.88;;
22298;SDS011;11317;51.072;17.036;2022-12-10T06:22:23;38.40;;;14.40;;
22298;SDS011;11317;51.072;17.036;2022-12-10T06:24:49;33.58;;;14.00;;
22298;SDS011;11317;51.072;17.036;2022-12-10T06:27:15;36.40;;;13.75;;
22298;SDS011;11317;51.072;17.036;2022-12-10T06:29:41;34.08;;;13.48;;
22298;SDS011;11317;51.072;17.036;2022-12-10T06:32:06;40.72;;;13.73;;
22298;SDS011;11317;51.072;17.036;2022-12-10T06:34:32;38.70;;;14.02;;
22298;SDS011;11317;51.072;17.036;2022-12-10T06:36:58;37.05;;;13.40;;
22298;SDS011;11317;51.072;17.036;2022-12-10T06:39:24;40.63;;;14.35;;
22298;SDS011;11317;51.072;17.036;2022-12-10T06:41:50;41.40;;;13.63;;
22298;SDS011;11317;51.072;17.036;2022-12-10T06:44:16;40.90;;;13.70;;
22298;SDS011;11317;51.072;17.036;2022-12-10T06:46:42;37.67;;;13.85;;
22298;SDS011;11317;51.072;17.036;2022-12-10T06:49:08;42.00;;;12.80;;
22298;SDS011;11317;51.072;17.036;2022-12-10T06:51:34;35.35;;;12.40;;
22298;SDS011;11317;51.072;17.036;2022-12-10T06:54:03;42.70;;;13.50;;
22298;SDS011;11317;51.072;17.036;2022-12-10T06:56:29;38.35;;;13.35;;
22298;SDS011;11317;51.072;17.036;2022-12-10T06:58:55;38.10;;;13.23;;
22298;SDS011;11317;51.072;17.036;2022-12-10T07:01:22;37.05;;;12.35;;
22298;SDS011;11317;51.072;17.036;2022-12-10T07:03:52;36.33;;;13.88;;
22298;SDS011;11317;51.072;17.036;2022-12-10T07:06:19;42.17;;;13.75;;
22298;SDS011;11317;51.072;17.036;2022-12-10T07:08:46;35.88;;;13.93;;
22298;SDS011;11317;51.072;17.036;2022-12-10T07:11:13;40.63;;;13.52;;
22298;SDS011;11317;51.072;17.036;2022-12-10T07:13:40;35.10;;;13.55;;
22298;SDS011;11317;51.072;17.036;2022-12-10T07:16:13;34.63;;;12.52;;
22298;SDS011;11317;51.072;17.036;2022-12-10T07:18:50;36.22;;;13.75;;
22298;SDS011;11317;51.072;17.036;2022-12-10T07:21:18;39.33;;;14.85;;
22298;SDS011;11317;51.072;17.036;2022-12-10T07:23:49;32.70;;;13.65;;
22298;SDS011;11317;51.072;17.036;2022-12-10T07:26:16;39.22;;;15.60;;
22298;SDS011;11317;51.072;17.036;2022-12-10T07:28:42;38.13;;;13.40;;
22298;SDS011;11317;51.072;17.036;2022-12-10T07:31:08;34.25;;;13.02;;
22298;SDS011;11317;51.072;17.036;2022-12-10T07:33:35;41.67;;;14.27;;
22298;SDS011;11317;51.072;17.036;2022-12-10T07:36:08;45.90;;;15.77;;
22298;SDS011;11317;51.072;17.036;2022-12-10T07:38:35;34.33;;;14.02;;
22298;SDS011;11317;51.072;17.036;2022-12-10T07:41:05;34.33;;;12.75;;
22298;SDS011;11317;51.072;17.036;2022-12-10T07:43:34;42.88;;;15.40;;
22298;SDS011;11317;51.072;17.036;2022-12-10T07:46:08;41.55;;;14.60;;
22298;SDS011;11317;51.072;17.036;2022-12-10T07:48:36;38.42;;;13.48;;
22298;SDS011;11317;51.072;17.036;2022-12-10T07:51:04;35.58;;;14.38;;
22298;SDS011;11317;51.072;17.036;2022-12-10T07:53:29;28.25;;;13.43;;
22298;SDS011;11317;51.072;17.036;2022-12-10T07:55:55;41.92;;;14.32;;
22298;SDS011;11317;51.072;17.036;2022-12-10T07:58:22;32.63;;;13.75;;
22298;SDS011;11317;51.072;17.036;2022-12-10T08:00:48;42.47;;;16.30;;
22298;SDS011;11317;51.072;17.036;2022-12-10T08:03:14;32.95;;;13.25;;
22298;SDS011;11317;51.072;17.036;2022-12-10T08:05:40;41.05;;;14.07;;
22298;SDS011;11317;51.072;17.036;2022-12-10T08:08:07;35.95;;;13.98;;
22298;SDS011;11317;51.072;17.036;2022-12-10T08:10:33;43.92;;;14.23;;
22298;SDS011;11317;51.072;17.036;2022-12-10T08:13:00;39.67;;;14.15;;
22298;SDS011;11317;51.072;17.036;2022-12-10T08:15:26;39.72;;;14.20;;
22298;SDS011;11317;51.072;17.036;2022-12-10T08:17:54;43.15;;;15.18;;
22298;SDS011;11317;51.072;17.036;2022-12-10T08:20:21;34.75;;;14.05;;
22298;SDS011;11317;51.072;17.036;2022-12-10T08:22:47;37.92;;;13.68;;
22298;SDS011;11317;51.072;17.036;2022-12-10T08:25:13;35.20;;;13.82;;
22298;SDS011;11317;51.072;17.036;2022-12-10T08:27:39;45.60;;;15.90;;
22298;SDS011;11317;51.072;17.036;2022-12-10T08:30:06;42.05;;;15.57;;
22298;SDS011;11317;51.072;17.036;2022-12-10T08:32:33;40.17;;;15.13;;
22298;SDS011;11317;51.072;17.036;2022-12-10T08:34:59;34.13;;;13.20;;
22298;SDS011;11317;51.072;17.036;2022-12-10T08:37:25;31.60;;;12.25;;
22298;SDS011;11317;51.072;17.036;2022-12-10T08:39:51;36.13;;;13.80;;
22298;SDS011;11317;51.072;17.036;2022-12-10T08:42:17;37.05;;;13.65;;
22298;SDS011;11317;51.072;17.036;2022-12-10T08:44:43;37.20;;;12.98;;
22298;SDS011;11317;51.072;17.036;2022-12-10T08:47:09;35.45;;;13.05;;
22298;SDS011;11317;51.072;17.036;2022-12-10T08:49:35;36.75;;;13.98;;
22298;SDS011;11317;51.072;17.036;2022-12-10T08:52:01;36.05;;;13.25;;
22298;SDS011;11317;51.072;17.036;2022-12-10T08:54:27;34.92;;;12.68;;
22298;SDS011;11317;51.072;17.036;2022-12-10T08:56:53;40.35;;;13.68;;
22298;SDS011;11317;51.072;17.036;2022-12-10T08:59:20;40.80;;;14.40;;
22298;SDS011;11317;51.072;17.036;2022-12-10T09:01:46;36.15;;;13.52;;
22298;SDS011;11317;51.072;17.036;2022-12-10T09:04:12;44.97;;;14.95;;
22298;SDS011;11317;51.072;17.036;2022-12-10T09:06:38;38.63;;;14.43;;
22298;SDS011;11317;51.072;17.036;2022-12-10T09:09:04;36.65;;;14.35;;
22298;SDS011;11317;51.072;17.036;2022-12-10T09:11:32;36.40;;;12.90;;
22298;SDS011;11317;51.072;17.036;2022-12-10T09:13:59;38.33;;;13.70;;
22298;SDS011;11317;51.072;17.036;2022-12-10T09:16:32;37.40;;;12.75;;
22298;SDS011;11317;51.072;17.036;2022-12-10T09:18:59;39.83;;;14.05;;
22298;SDS011;11317;51.072;17.036;2022-12-10T09:21:25;42.22;;;14.68;;
22298;SDS011;11317;51.072;17.036;2022-12-10T09:23:52;43.97;;;14.43;;
22298;SDS011;11317;51.072;17.036;2022-12-10T09:26:18;34.40;;;14.23;;
22298;SDS011;11317;51.072;17.036;2022-12-10T09:28:44;44.30;;;14.13;;
22298;SDS011;11317;51.072;17.036;2022-12-10T09:31:11;46.45;;;15.90;;
22298;SDS011;11317;51.072;17.036;2022-12-10T09:33:37;38.75;;;15.00;;
22298;SDS011;11317;51.072;17.036;2022-12-10T09:36:04;38.78;;;14.80;;
22298;SDS011;11317;51.072;17.036;2022-12-10T09:38:33;37.83;;;13.27;;
22298;SDS011;11317;51.072;17.036;2022-12-10T09:41:01;40.50;;;14.43;;
22298;SDS011;11317;51.072;17.036;2022-12-10T09:43:56;42.28;;;15.57;;
22298;SDS011;11317;51.072;17.036;2022-12-10T09:51:38;38.15;;;14.20;;
22298;SDS011;11317;51.072;17.036;2022-12-10T09:57:02;39.28;;;14.27;;
22298;SDS011;11317;51.072;17.036;2022-12-10T10:02:01;38.88;;;14.10;;
22298;SDS011;11317;51.072;17.036;2022-12-10T10:04:27;32.92;;;13.57;;
22298;SDS011;11317;51.072;17.036;2022-12-10T10:06:54;39.03;;;13.60;;
22298;SDS011;11317;51.072;17.036;2022-12-10T10:09:20;35.22;;;13.23;;
22298;SDS011;11317;51.072;17.036;2022-12-10T10:11:46;38.10;;;13.55;;
22298;SDS011;11317;51.072;17.036;2022-12-10T10:14:14;35.00;;;13.70;;
22298;SDS011;11317;51.072;17.036;2022-12-10T10:16:55;32.85;;;13.65;;
22298;SDS011;11317;51.072;17.036;2022-12-10T10:19:27;40.15;;;12.80;;
22298;SDS011;11317;51.072;17.036;2022-12-10T10:21:55;31.95;;;12.68;;
22298;SDS011;11317;51.072;17.036;2022-12-10T10:24:22;36.80;;;13.40;;
22298;SDS011;11317;51.072;17.036;2022-12-10T10:26:56;33.33;;;12.45;;
22298;SDS011;11317;51.072;17.036;2022-12-10T10:29:24;33.78;;;13.27;;
22298;SDS011;11317;51.072;17.036;2022-12-10T10:32:09;35.42;;;12.77;;
22298;SDS011;11317;51.072;17.036;2022-12-10T10:34:54;32.22;;;12.88;;
22298;SDS011;11317;51.072;17.036;2022-12-10T10:37:24;38.80;;;14.93;;
22298;SDS011;11317;51.072;17.036;2022-12-10T10:39:54;30.80;;;12.63;;
22298;SDS011;11317;51.072;17.036;2022-12-10T10:42:23;37.83;;;13.18;;
22298;SDS011;11317;51.072;17.036;2022-12-10T10:50:41;32.60;;;12.85;;
22298;SDS011;11317;51.072;17.036;2022-12-10T10:56:22;37.38;;;14.25;;
22298;SDS011;11317;51.072;17.036;2022-12-10T11:01:26;41.10;;;14.25;;
22298;SDS011;11317;51.072;17.036;2022-12-10T11:04:14;35.20;;;13.95;;
22298;SDS011;11317;51.072;17.036;2022-12-10T11:06:43;36.03;;;12.75;;
22298;SDS011;11317;51.072;17.036;2022-12-10T11:09:20;37.92;;;13.32;;
22298;SDS011;11317;51.072;17.036;2022-12-10T11:11:50;34.80;;;12.63;;
22298;SDS011;11317;51.072;17.036;2022-12-10T11:14:23;35.65;;;13.02;;
22298;SDS011;11317;51.072;17.036;2022-12-10T11:19:35;32.58;;;12.90;;
22298;SDS011;11317;51.072;17.036;2022-12-10T11:24:57;28.02;;;12.25;;
22298;SDS011;11317;51.072;17.036;2022-12-10T11:30:04;33.45;;;13.10;;
22298;SDS011;11317;51.072;17.036;2022-12-10T11:35:50;35.67;;;13.88;;
22298;SDS011;11317;51.072;17.036;2022-12-10T11:38:54;30.85;;;12.23;;
22298;SDS011;11317;51.072;17.036;2022-12-10T11:54:07;34.45;;;13.23;;
22298;SDS011;11317;51.072;17.036;2022-12-10T12:10:19;38.33;;;13.38;;
22298;SDS011;11317;51.072;17.036;2022-12-10T12:15:29;33.58;;;13.77;;
22298;SDS011;11317;51.072;17.036;2022-12-10T12:18:14;39.13;;;14.43;;
22298;SDS011;11317;51.072;17.036;2022-12-10T12:20:57;37.28;;;13.85;;
22298;SDS011;11317;51.072;17.036;2022-12-10T12:23:31;33.78;;;12.85;;
22298;SDS011;11317;51.072;17.036;2022-12-10T12:26:42;34.47;;;13.38;;
22298;SDS011;11317;51.072;17.036;2022-12-10T12:31:41;40.88;;;15.35;;
22298;SDS011;11317;51.072;17.036;2022-12-10T12:36:37;40.10;;;13.30;;
22298;SDS011;11317;51.072;17.036;2022-12-10T12:42:46;38.50;;;14.88;;
22298;SDS011;11317;51.072;17.036;2022-12-10T12:45:01;37.05;;;14.18;;
22298;SDS011;11317;51.072;17.036;2022-12-10T12:50:26;38.25;;;14.88;;
22298;SDS011;11317;51.072;17.036;2022-12-10T12:52:59;38.55;;;14.73;;
22298;SDS011;11317;51.072;17.036;2022-12-10T13:00:49;37.95;;;13.45;;
22298;SDS011;11317;51.072;17.036;2022-12-10T13:06:16;40.03;;;14.02;;
22298;SDS011;11317;51.072;17.036;2022-12-10T13:08:43;42.58;;;15.32;;
22298;SDS011;11317;51.072;17.036;2022-12-10T13:25:13;34.67;;;14.93;;
22298;SDS011;11317;51.072;17.036;2022-12-10T13:27:41;36.30;;;14.80;;
22298;SDS011;11317;51.072;17.036;2022-12-10T13:30:27;45.17;;;15.27;;
22298;SDS011;11317;51.072;17.036;2022-12-10T13:33:04;38.97;;;15.57;;
22298;SDS011;11317;51.072;17.036;2022-12-10T13:35:55;41.45;;;16.15;;
22298;SDS011;11317;51.072;17.036;2022-12-10T13:38:24;43.35;;;15.15;;
22298;SDS011;11317;51.072;17.036;2022-12-10T13:41:00;41.28;;;16.33;;
22298;SDS011;11317;51.072;17.036;2022-12-10T13:43:58;38.15;;;14.75;;
22298;SDS011;11317;51.072;17.036;2022-12-10T13:49:19;38.13;;;16.08;;
22298;SDS011;11317;51.072;17.036;2022-12-10T13:52:03;36.25;;;14.52;;
22298;SDS011;11317;51.072;17.036;2022-12-10T14:00:19;35.03;;;13.95;;
22298;SDS011;11317;51.072;17.036;2022-12-10T14:06:12;34.75;;;11.18;;
22298;SDS011;11317;51.072;17.036;2022-12-10T14:08:41;39.05;;;14.90;;
22298;SDS011;11317;51.072;17.036;2022-12-10T14:11:28;43.53;;;15.45;;
22298;SDS011;11317;51.072;17.036;2022-12-10T14:14:02;45.20;;;16.10;;
22298;SDS011;11317;51.072;17.036;2022-12-10T14:16:32;37.33;;;15.98;;
22298;SDS011;11317;51.072;17.036;2022-12-10T14:19:03;43.75;;;16.30;;
22298;SDS011;11317;51.072;17.036;2022-12-10T14:21:34;41.03;;;15.95;;
22298;SDS011;11317;51.072;17.036;2022-12-10T14:24:04;42.03;;;15.43;;
22298;SDS011;11317;51.072;17.036;2022-12-10T14:26:31;42.15;;;15.23;;
22298;SDS011;11317;51.072;17.036;2022-12-10T14:29:11;40.35;;;16.15;;
22298;SDS011;11317;51.072;17.036;2022-12-10T14:31:49;39.10;;;15.48;;
22298;SDS011;11317;51.072;17.036;2022-12-10T14:34:18;45.25;;;15.50;;
22298;SDS011;11317;51.072;17.036;2022-12-10T14:36:52;39.58;;;16.38;;
22298;SDS011;11317;51.072;17.036;2022-12-10T14:39:31;53.83;;;16.67;;
22298;SDS011;11317;51.072;17.036;2022-12-10T14:41:59;44.60;;;16.38;;
22298;SDS011;11317;51.072;17.036;2022-12-10T14:44:28;43.83;;;15.90;;
22298;SDS011;11317;51.072;17.036;2022-12-10T14:47:02;38.83;;;14.95;;
22298;SDS011;11317;51.072;17.036;2022-12-10T14:49:41;41.78;;;14.18;;
22298;SDS011;11317;51.072;17.036;2022-12-10T14:52:12;45.88;;;16.83;;
22298;SDS011;11317;51.072;17.036;2022-12-10T14:54:40;39.47;;;14.88;;
22298;SDS011;11317;51.072;17.036;2022-12-10T14:57:07;38.88;;;13.98;;
22298;SDS011;11317;51.072;17.036;2022-12-10T14:59:49;46.60;;;14.75;;
22298;SDS011;11317;51.072;17.036;2022-12-10T15:02:24;39.60;;;14.35;;
22298;SDS011;11317;51.072;17.036;2022-12-10T15:04:54;36.60;;;15.15;;
22298;SDS011;11317;51.072;17.036;2022-12-10T15:07:22;45.45;;;16.15;;
22298;SDS011;11317;51.072;17.036;2022-12-10T15:09:50;39.70;;;16.63;;
22298;SDS011;11317;51.072;17.036;2022-12-10T15:15:19;40.72;;;17.10;;
22298;SDS011;11317;51.072;17.036;2022-12-10T15:17:58;45.22;;;16.70;;
22298;SDS011;11317;51.072;17.036;2022-12-10T15:20:29;47.88;;;16.45;;
22298;SDS011;11317;51.072;17.036;2022-12-10T15:23:07;48.83;;;17.38;;
22298;SDS011;11317;51.072;17.036;2022-12-10T15:31:09;45.47;;;16.63;;
22298;SDS011;11317;51.072;17.036;2022-12-10T15:33:49;44.38;;;16.08;;
22298;SDS011;11317;51.072;17.036;2022-12-10T15:36:48;44.92;;;16.58;;
22298;SDS011;11317;51.072;17.036;2022-12-10T15:39:19;42.03;;;15.50;;
22298;SDS011;11317;51.072;17.036;2022-12-10T15:41:49;39.63;;;16.15;;
22298;SDS011;11317;51.072;17.036;2022-12-10T15:46:49;46.70;;;17.00;;
22298;SDS011;11317;51.072;17.036;2022-12-10T15:49:16;43.35;;;16.80;;
22298;SDS011;11317;51.072;17.036;2022-12-10T15:51:42;48.63;;;17.30;;
22298;SDS011;11317;51.072;17.036;2022-12-10T15:54:12;45.85;;;15.88;;
22298;SDS011;11317;51.072;17.036;2022-12-10T15:56:44;47.78;;;17.65;;
22298;SDS011;11317;51.072;17.036;2022-12-10T15:59:10;44.80;;;16.02;;
22298;SDS011;11317;51.072;17.036;2022-12-10T16:01:36;40.85;;;16.00;;
22298;SDS011;11317;51.072;17.036;2022-12-10T16:04:01;44.65;;;16.48;;
22298;SDS011;11317;51.072;17.036;2022-12-10T16:06:28;43.03;;;17.00;;
22298;SDS011;11317;51.072;17.036;2022-12-10T16:08:54;42.25;;;14.85;;
22298;SDS011;11317;51.072;17.036;2022-12-10T16:11:20;38.95;;;16.27;;
22298;SDS011;11317;51.072;17.036;2022-12-10T16:13:48;44.00;;;16.75;;
22298;SDS011;11317;51.072;17.036;2022-12-10T16:16:16;46.95;;;15.80;;
22298;SDS011;11317;51.072;17.036;2022-12-10T16:18:42;38.83;;;15.82;;
22298;SDS011;11317;51.072;17.036;2022-12-10T16:21:08;46.53;;;16.70;;
22298;SDS011;11317;51.072;17.036;2022-12-10T16:23:34;44.10;;;16.35;;
22298;SDS011;11317;51.072;17.036;2022-12-10T16:26:02;44.15;;;15.05;;
22298;SDS011;11317;51.072;17.036;2022-12-10T16:28:41;46.35;;;16.13;;
22298;SDS011;11317;51.072;17.036;2022-12-10T16:31:07;41.03;;;14.95;;
22298;SDS011;11317;51.072;17.036;2022-12-10T16:33:39;45.55;;;16.52;;
22298;SDS011;11317;51.072;17.036;2022-12-10T16:36:05;42.40;;;16.25;;
22298;SDS011;11317;51.072;17.036;2022-12-10T16:38:33;51.35;;;16.00;;
22298;SDS011;11317;51.072;17.036;2022-12-10T16:40:59;49.13;;;15.90;;
22298;SDS011;11317;51.072;17.036;2022-12-10T16:43:26;46.85;;;15.55;;